createdAt,value
2022-09-02T00:01:38.280Z,3.42
2022-09-02T00:04:09.305Z,3.15
2022-09-02T00:06:39.479Z,3.47
2022-09-02T00:09:09.463Z,3.70
2022-09-02T00:11:39.080Z,3.63
2022-09-02T00:14:13.510Z,3.33
2022-09-02T00:16:52.319Z,3.20
2022-09-02T00:19:21.990Z,4.15
2022-09-02T00:21:51.924Z,3.63
2022-09-02T00:24:20.376Z,3.47
2022-09-02T00:26:48.585Z,3.65
2022-09-02T00:29:16.927Z,3.92
2022-09-02T00:31:46.718Z,3.45
2022-09-02T00:34:15.252Z,3.58
2022-09-02T00:36:43.376Z,3.60
2022-09-02T00:39:12.816Z,3.55
2022-09-02T00:41:43.232Z,3.78
2022-09-02T00:44:13.589Z,3.50
2022-09-02T00:46:41.910Z,3.35
2022-09-02T00:49:16.044Z,3.72
2022-09-02T00:51:47.549Z,3.38
2022-09-02T00:54:20.153Z,3.28
2022-09-02T00:56:50.561Z,3.45
2022-09-02T00:59:28.190Z,4.07
2022-09-02T01:01:56.555Z,3.80
2022-09-02T01:04:24.753Z,4.10
2022-09-02T01:06:54.051Z,3.70
2022-09-02T01:09:23.574Z,3.22
2022-09-02T01:11:53.600Z,3.42
2022-09-02T01:14:22.150Z,3.58
2022-09-02T01:16:54.410Z,3.60
2022-09-02T01:19:25.763Z,3.50
2022-09-02T01:21:56.664Z,3.42
2022-09-02T01:24:29.087Z,3.80
2022-09-02T01:26:59.416Z,2.90
2022-09-02T01:29:29.399Z,3.65
2022-09-02T01:31:58.284Z,3.67
2022-09-02T01:34:26.998Z,3.85
2022-09-02T01:36:56.617Z,3.47
2022-09-02T01:39:24.768Z,3.42
2022-09-02T01:41:53.372Z,3.55
2022-09-02T01:44:21.653Z,3.55
2022-09-02T01:46:51.364Z,3.47
2022-09-02T01:49:19.547Z,3.53
2022-09-02T01:51:48.642Z,3.70
2022-09-02T01:54:18.548Z,3.88
2022-09-02T01:56:46.558Z,3.70
2022-09-02T01:59:18.004Z,3.55
2022-09-02T02:01:47.017Z,3.90
2022-09-02T02:04:17.109Z,3.50
2022-09-02T02:06:48.871Z,3.97
2022-09-02T02:09:23.448Z,3.75
2022-09-02T02:11:53.266Z,3.72
2022-09-02T02:14:21.505Z,4.03
2022-09-02T02:16:51.822Z,3.72
2022-09-02T02:19:19.971Z,3.67
2022-09-02T02:21:49.339Z,3.28
2022-09-02T02:24:18.406Z,3.33
2022-09-02T02:26:48.074Z,3.63
2022-09-02T02:29:17.316Z,3.40
2022-09-02T02:31:45.923Z,3.45
2022-09-02T02:34:14.099Z,3.30
2022-09-02T02:36:44.135Z,3.60
2022-09-02T02:39:13.620Z,3.10
2022-09-02T02:41:44.949Z,3.38
2022-09-02T02:44:15.636Z,3.28
2022-09-02T02:46:44.086Z,3.55
2022-09-02T02:49:14.107Z,3.03
2022-09-02T02:51:43.600Z,3.83
2022-09-02T02:54:14.424Z,3.40
2022-09-02T02:56:43.131Z,3.40
2022-09-02T02:59:11.330Z,3.63
2022-09-02T03:01:40.990Z,3.60
2022-09-02T03:04:09.251Z,3.80
2022-09-02T03:06:37.300Z,3.40
2022-09-02T03:09:06.066Z,3.53
2022-09-02T03:11:36.539Z,3.45
2022-09-02T03:14:05.209Z,3.10
2022-09-02T03:16:35.611Z,2.97
2022-09-02T03:19:06.169Z,3.50
2022-09-02T03:21:38.771Z,3.55
2022-09-02T03:24:09.058Z,3.33
2022-09-02T03:26:37.263Z,3.33
2022-09-02T03:29:05.791Z,3.47
2022-09-02T03:31:34.841Z,3.50
2022-09-02T03:34:04.228Z,3.30
2022-09-02T03:36:38.780Z,3.10
2022-09-02T03:39:10.046Z,3.20
2022-09-02T03:41:41.336Z,3.20
2022-09-02T03:44:10.818Z,3.25
2022-09-02T03:46:39.969Z,3.40
2022-09-02T03:49:08.217Z,3.45
2022-09-02T03:51:41.800Z,3.40
2022-09-02T03:54:10.941Z,3.45
2022-09-02T03:56:40.385Z,3.58
2022-09-02T03:59:09.581Z,3.80
2022-09-02T04:01:38.314Z,3.67
2022-09-02T04:04:08.393Z,3.13
2022-09-02T04:06:39.688Z,3.30
2022-09-02T04:09:08.069Z,3.80
2022-09-02T04:11:37.234Z,3.58
2022-09-02T04:14:05.642Z,3.47
2022-09-02T04:16:35.366Z,3.45
2022-09-02T04:19:09.548Z,3.30
2022-09-02T04:21:41.837Z,3.53
2022-09-02T04:24:12.738Z,3.65
2022-09-02T04:26:45.374Z,3.50
2022-09-02T04:29:15.464Z,4.15
2022-09-02T04:31:45.313Z,3.35
2022-09-02T04:34:13.570Z,3.60
2022-09-02T04:36:44.221Z,3.47
2022-09-02T04:39:13.711Z,3.50
2022-09-02T04:41:42.590Z,3.90
2022-09-02T04:44:13.081Z,3.63
2022-09-02T04:46:44.601Z,3.88
2022-09-02T04:49:17.733Z,3.58
2022-09-02T04:51:48.539Z,3.63
2022-09-02T04:54:16.598Z,4.53
2022-09-02T04:56:48.694Z,4.10
2022-09-02T04:59:17.086Z,3.63
2022-09-02T05:01:54.250Z,3.45
2022-09-02T05:04:27.360Z,3.50
2022-09-02T05:06:58.220Z,3.55
2022-09-02T05:09:26.388Z,3.60
2022-09-02T05:12:04.346Z,3.70
2022-09-02T05:14:43.574Z,4.25
2022-09-02T05:17:11.952Z,3.60
2022-09-02T05:19:43.522Z,3.70
2022-09-02T05:22:13.441Z,4.00
2022-09-02T05:24:43.767Z,3.65
2022-09-02T05:27:16.316Z,3.55
2022-09-02T05:29:45.767Z,3.60
2022-09-02T05:32:16.065Z,3.75
2022-09-02T05:34:46.581Z,3.88
2022-09-02T05:37:16.049Z,4.25
2022-09-02T05:39:44.325Z,4.15
2022-09-02T05:42:12.447Z,3.72
2022-09-02T05:44:44.563Z,3.75
2022-09-02T05:47:14.042Z,3.75
2022-09-02T05:49:43.067Z,3.97
2022-09-02T05:52:15.793Z,4.07
2022-09-02T05:54:46.866Z,4.07
2022-09-02T05:57:18.789Z,3.90
2022-09-02T06:00:17.768Z,4.03
2022-09-02T06:02:53.406Z,3.75
2022-09-02T06:05:30.003Z,4.07
2022-09-02T06:08:08.440Z,4.05
2022-09-02T06:10:42.519Z,4.05
2022-09-02T06:13:12.674Z,4.35
2022-09-02T06:15:44.284Z,4.90
2022-09-02T06:18:14.294Z,5.38
2022-09-02T06:20:46.927Z,4.18
2022-09-02T06:23:17.907Z,4.32
2022-09-02T06:25:49.311Z,4.00
2022-09-02T06:28:17.931Z,5.03
2022-09-02T06:30:48.560Z,4.05
2022-09-02T06:33:18.740Z,4.57
2022-09-02T06:35:49.422Z,4.43
2022-09-02T06:38:20.988Z,4.53
2022-09-02T06:40:52.775Z,4.63
2022-09-02T06:43:27.955Z,4.55
2022-09-02T06:46:09.731Z,3.90
2022-09-02T06:48:39.128Z,4.47
2022-09-02T06:51:08.899Z,3.97
2022-09-02T06:53:39.095Z,4.85
2022-09-02T06:56:08.607Z,4.68
2022-09-02T06:58:36.673Z,3.78
2022-09-02T07:01:04.977Z,4.45
2022-09-02T07:03:50.773Z,3.88
2022-09-02T07:06:19.061Z,4.10
2022-09-02T07:08:51.576Z,4.28
2022-09-02T07:11:22.874Z,3.95
2022-09-02T07:13:54.419Z,4.57
2022-09-02T07:16:26.956Z,3.85
2022-09-02T07:18:58.015Z,3.92
2022-09-02T07:21:27.231Z,4.05
2022-09-02T07:23:59.639Z,4.25
2022-09-02T07:26:29.114Z,3.97
2022-09-02T07:28:58.462Z,4.30
2022-09-02T07:31:27.537Z,3.92
2022-09-02T07:33:58.897Z,4.18
2022-09-02T07:36:28.872Z,3.90
2022-09-02T07:38:59.709Z,4.13
2022-09-02T07:41:27.745Z,4.65
2022-09-02T07:43:59.620Z,5.22
2022-09-02T07:46:31.643Z,4.45
2022-09-02T07:49:00.425Z,4.40
2022-09-02T07:51:30.902Z,4.75
2022-09-02T07:54:03.128Z,4.38
2022-09-02T07:56:31.544Z,4.10
2022-09-02T07:58:59.721Z,4.32
2022-09-02T08:01:28.043Z,3.80
2022-09-02T08:03:57.949Z,3.95
2022-09-02T08:06:35.002Z,3.60
2022-09-02T08:09:06.796Z,3.83
2022-09-02T08:11:40.074Z,3.70
2022-09-02T08:14:09.103Z,3.60
2022-09-02T08:16:39.122Z,3.75
2022-09-02T08:19:08.511Z,4.18
2022-09-02T08:21:36.631Z,3.97
2022-09-02T08:24:06.371Z,4.03
2022-09-02T08:26:37.149Z,4.10
2022-09-02T08:29:05.503Z,3.83
2022-09-02T08:31:34.060Z,4.28
2022-09-02T08:34:02.481Z,4.50
2022-09-02T08:36:30.473Z,5.15
2022-09-02T08:38:58.664Z,5.43
2022-09-02T08:41:34.684Z,4.82
2022-09-02T08:44:05.235Z,4.75
2022-09-02T08:46:36.013Z,4.68
2022-09-02T08:49:10.780Z,5.15
2022-09-02T08:51:42.849Z,4.45
2022-09-02T08:54:21.420Z,4.25
2022-09-02T08:56:51.855Z,4.22
2022-09-02T08:59:22.187Z,4.90
2022-09-02T09:01:54.671Z,4.07
2022-09-02T09:04:32.951Z,3.95
2022-09-02T09:07:18.301Z,3.90
2022-09-02T09:10:00.480Z,4.03
2022-09-02T09:12:42.296Z,4.00
2022-09-02T09:15:14.953Z,3.30
2022-09-02T09:17:46.598Z,3.97
2022-09-02T09:20:20.465Z,3.55
2022-09-02T09:22:50.841Z,3.75
2022-09-02T09:25:19.968Z,3.60
2022-09-02T09:27:49.330Z,3.63
2022-09-02T09:30:17.452Z,3.38
2022-09-02T09:32:48.815Z,3.55
2022-09-02T09:35:18.031Z,3.35
2022-09-02T09:37:48.171Z,3.97
2022-09-02T09:40:38.416Z,3.45
2022-09-02T09:43:16.218Z,3.42
2022-09-02T09:45:45.845Z,3.42
2022-09-02T09:48:30.784Z,3.15
2022-09-02T09:51:14.120Z,3.58
2022-09-02T09:53:42.293Z,3.22
2022-09-02T09:56:26.687Z,3.30
2022-09-02T09:58:56.159Z,3.72
2022-09-02T10:01:26.491Z,3.58
2022-09-02T10:03:58.196Z,4.28
2022-09-02T10:06:37.464Z,4.18
2022-09-02T10:09:07.498Z,3.85
2022-09-02T10:11:37.741Z,3.33
2022-09-02T10:14:10.028Z,3.58
2022-09-02T10:16:51.931Z,3.53
2022-09-02T10:19:31.024Z,4.10
2022-09-02T10:22:14.459Z,3.92
2022-09-02T10:25:02.066Z,3.92
2022-09-02T10:27:38.726Z,4.28
2022-09-02T10:30:15.595Z,3.83
2022-09-02T10:32:59.855Z,4.28
2022-09-02T10:35:39.830Z,4.00
2022-09-02T10:38:29.340Z,3.35
2022-09-02T10:41:07.719Z,3.75
2022-09-02T10:43:57.208Z,3.60
2022-09-02T10:46:27.890Z,4.03
2022-09-02T10:49:06.635Z,4.05
2022-09-02T10:51:43.798Z,4.10
2022-09-02T10:54:24.421Z,3.95
2022-09-02T10:56:58.472Z,4.22
2022-09-02T10:59:30.489Z,3.50
2022-09-02T11:02:09.076Z,3.83
2022-09-02T11:04:41.747Z,3.95
2022-09-02T11:07:13.540Z,3.45
2022-09-02T11:09:48.977Z,3.58
2022-09-02T11:12:21.300Z,4.00
2022-09-02T11:15:00.272Z,3.63
2022-09-02T11:17:36.901Z,4.35
2022-09-02T11:20:11.805Z,3.10
2022-09-02T11:22:47.391Z,3.13
2022-09-02T11:25:19.063Z,3.17
2022-09-02T11:27:56.048Z,3.60
2022-09-02T11:30:27.896Z,2.85
2022-09-02T11:33:03.470Z,3.03
2022-09-02T11:35:38.740Z,3.28
2022-09-02T11:38:12.945Z,3.30
2022-09-02T11:43:50.071Z,3.58
2022-09-02T11:46:42.171Z,4.10
2022-09-02T11:49:44.304Z,3.63
2022-09-02T11:52:27.189Z,3.05
2022-09-02T11:55:05.932Z,3.47
2022-09-02T11:57:34.053Z,3.70
2022-09-02T12:00:13.752Z,3.42
2022-09-02T12:02:46.269Z,3.35
2022-09-02T12:05:51.477Z,3.20
2022-09-02T12:09:02.751Z,3.25
2022-09-02T12:11:53.226Z,3.33
2022-09-02T12:15:07.363Z,3.00
2022-09-02T12:17:38.468Z,2.53
2022-09-02T12:20:09.549Z,2.80
2022-09-02T12:22:42.565Z,3.60
2022-09-02T12:25:38.280Z,3.33
2022-09-02T12:28:21.590Z,3.08
2022-09-02T12:31:14.568Z,2.90
2022-09-02T12:33:45.322Z,2.70
2022-09-02T12:36:44.043Z,3.15
2022-09-02T12:39:52.911Z,3.17
2022-09-02T12:42:28.195Z,2.75
2022-09-02T12:45:06.834Z,2.67
2022-09-02T12:47:48.067Z,3.20
2022-09-02T12:50:26.453Z,3.10
2022-09-02T12:53:10.205Z,3.00
2022-09-02T12:55:41.250Z,3.03
2022-09-02T12:58:11.800Z,2.50
2022-09-02T13:01:01.073Z,3.28
2022-09-02T13:03:43.884Z,3.20
2022-09-02T13:06:21.318Z,2.80
2022-09-02T13:09:15.983Z,2.95
2022-09-02T13:12:16.484Z,2.53
2022-09-02T13:15:05.248Z,2.75
2022-09-02T13:17:48.311Z,3.03
2022-09-02T13:20:55.947Z,2.58
2022-09-02T13:24:00.768Z,2.40
2022-09-02T13:26:54.966Z,2.88
2022-09-02T13:30:09.574Z,2.65
2022-09-02T13:32:38.110Z,2.55
2022-09-02T13:35:08.819Z,3.08
2022-09-02T13:37:39.192Z,2.78
2022-09-02T13:40:19.314Z,2.90
2022-09-02T13:42:52.123Z,2.75
2022-09-02T13:45:23.560Z,2.92
2022-09-02T13:47:54.008Z,2.65
2022-09-02T13:50:24.425Z,2.90
2022-09-02T13:53:49.303Z,3.15
2022-09-02T13:55:51.074Z,2.67
2022-09-02T13:58:35.152Z,3.10
2022-09-02T14:01:28.980Z,2.67
2022-09-02T14:03:59.067Z,2.78
2022-09-02T14:06:31.427Z,2.78
2022-09-02T14:09:02.372Z,2.90
2022-09-02T14:11:39.288Z,2.70
2022-09-02T14:14:07.670Z,3.30
2022-09-02T14:16:38.118Z,3.25
2022-09-02T14:19:10.400Z,3.20
2022-09-02T14:21:45.224Z,3.10
2022-09-02T14:24:14.293Z,2.90
2022-09-02T14:26:45.198Z,2.83
2022-09-02T14:29:16.057Z,2.58
2022-09-02T14:31:46.293Z,2.60
2022-09-02T14:34:38.732Z,3.00
2022-09-02T14:37:25.565Z,2.70
2022-09-02T14:40:12.077Z,2.63
2022-09-02T14:42:51.750Z,2.72
2022-09-02T14:45:28.079Z,3.17
2022-09-02T14:47:58.671Z,2.55
2022-09-02T14:50:30.677Z,2.65
2022-09-02T14:53:04.856Z,2.75
2022-09-02T14:55:48.955Z,2.83
2022-09-02T14:58:18.096Z,3.00
2022-09-02T15:00:48.895Z,2.95
2022-09-02T15:03:18.280Z,2.70
2022-09-02T15:05:46.601Z,2.85
2022-09-02T15:08:15.826Z,3.03
2022-09-02T15:10:45.788Z,2.58
2022-09-02T15:13:16.000Z,2.47
2022-09-02T15:15:43.980Z,2.83
2022-09-02T15:18:14.169Z,2.90
2022-09-02T15:20:43.600Z,2.78
2022-09-02T15:23:11.570Z,3.00
2022-09-02T15:25:39.574Z,3.17
2022-09-02T15:28:07.591Z,2.90
2022-09-02T15:30:36.706Z,2.70
2022-09-02T15:33:05.483Z,2.58
2022-09-02T15:35:34.580Z,2.40
2022-09-02T15:38:04.598Z,2.50
2022-09-02T15:40:33.305Z,3.08
2022-09-02T15:43:01.429Z,2.70
2022-09-02T15:45:29.387Z,2.70
2022-09-02T15:47:59.559Z,3.38
2022-09-02T15:50:28.339Z,3.22
2022-09-02T15:52:56.974Z,2.80
2022-09-02T15:55:29.411Z,2.20
2022-09-02T15:57:57.745Z,2.40
2022-09-02T16:00:27.672Z,2.55
2022-09-02T16:02:57.462Z,2.50
2022-09-02T16:05:25.485Z,2.58
2022-09-02T16:07:55.199Z,2.55
2022-09-02T16:10:23.419Z,2.88
2022-09-02T16:12:52.751Z,2.80
2022-09-02T16:15:20.959Z,2.63
2022-09-02T16:17:50.066Z,2.50
2022-09-02T16:20:21.238Z,2.38
2022-09-02T16:22:49.454Z,2.67
2022-09-02T16:25:17.515Z,2.80
2022-09-02T16:27:55.935Z,2.92
2022-09-02T16:30:25.795Z,2.63
2022-09-02T16:32:54.522Z,2.55
2022-09-02T16:35:22.516Z,2.47
2022-09-02T16:37:50.957Z,2.60
2022-09-02T16:40:21.616Z,2.88
2022-09-02T16:42:50.051Z,2.28
2022-09-02T16:45:18.032Z,2.40
2022-09-02T16:47:47.332Z,2.70
2022-09-02T16:50:15.727Z,3.00
2022-09-02T16:52:43.698Z,2.50
2022-09-02T16:55:17.802Z,2.65
2022-09-02T16:57:45.799Z,2.15
2022-09-02T17:00:15.239Z,2.75
2022-09-02T17:02:44.056Z,2.35
2022-09-02T17:05:17.427Z,2.50
2022-09-02T17:07:46.361Z,2.60
2022-09-02T17:10:14.291Z,2.60
2022-09-02T17:12:43.302Z,2.53
2022-09-02T17:15:11.718Z,2.28
2022-09-02T17:17:40.125Z,2.85
2022-09-02T17:20:08.943Z,2.20
2022-09-02T17:22:38.359Z,2.60
2022-09-02T17:25:07.506Z,2.33
2022-09-02T17:27:36.415Z,2.88
2022-09-02T17:30:05.475Z,2.15
2022-09-02T17:32:33.536Z,2.70
2022-09-02T17:35:02.747Z,3.03
2022-09-02T17:37:30.693Z,2.28
2022-09-02T17:40:00.140Z,3.05
2022-09-02T17:42:27.254Z,2.58
2022-09-02T17:44:55.204Z,2.72
2022-09-02T17:47:24.169Z,2.67
2022-09-02T17:49:52.514Z,2.50
2022-09-02T17:52:21.988Z,3.10
2022-09-02T17:54:51.291Z,2.70
2022-09-02T17:57:43.252Z,3.50
2022-09-02T18:00:13.407Z,3.60
2022-09-02T18:03:12.403Z,3.15
2022-09-02T18:05:53.038Z,4.35
2022-09-02T18:08:32.421Z,2.20
2022-09-02T18:11:05.213Z,2.38
2022-09-02T18:13:40.671Z,2.47
2022-09-02T18:16:23.493Z,2.70
2022-09-02T18:19:03.049Z,2.08
2022-09-02T18:21:42.165Z,2.42
2022-09-02T18:24:17.693Z,2.47
2022-09-02T18:26:58.392Z,2.63
2022-09-02T18:29:43.336Z,2.63
2022-09-02T18:32:20.379Z,2.67
2022-09-02T18:34:55.537Z,2.40
2022-09-02T18:37:31.885Z,2.60
2022-09-02T18:40:10.936Z,2.30
2022-09-02T18:42:50.354Z,2.33
2022-09-02T18:45:26.049Z,2.40
2022-09-02T18:47:56.243Z,2.30
2022-09-02T18:50:47.473Z,2.03
2022-09-02T18:53:19.765Z,2.30
2022-09-02T18:55:48.884Z,2.45
2022-09-02T18:58:34.274Z,2.65
2022-09-02T19:01:10.366Z,2.63
2022-09-02T19:03:38.834Z,2.90
2022-09-02T19:06:12.975Z,2.65
2022-09-02T19:08:40.547Z,2.83
2022-09-02T19:11:12.913Z,2.90
2022-09-02T19:13:47.568Z,3.95
2022-09-02T19:16:19.748Z,3.38
2022-09-02T19:18:47.998Z,3.08
2022-09-02T19:21:20.559Z,3.78
2022-09-02T19:23:50.005Z,3.22
2022-09-02T19:26:18.875Z,2.85
2022-09-02T19:28:48.457Z,3.00
2022-09-02T19:31:22.627Z,2.78
2022-09-02T19:33:52.783Z,2.70
2022-09-02T19:36:22.045Z,3.25
2022-09-02T19:38:50.013Z,3.10
2022-09-02T19:41:17.958Z,3.42
2022-09-02T19:43:46.315Z,2.75
2022-09-02T19:46:27.913Z,5.18
2022-09-02T19:49:05.002Z,3.83
2022-09-02T19:51:32.937Z,4.25
2022-09-02T19:54:01.053Z,3.95
2022-09-02T19:56:29.015Z,3.80
2022-09-02T19:58:57.007Z,4.00
2022-09-02T20:01:25.062Z,4.35
2022-09-02T20:03:53.344Z,4.03
2022-09-02T20:06:22.773Z,4.22
2022-09-02T20:08:51.220Z,4.03
2022-09-02T20:11:19.234Z,3.50
2022-09-02T20:13:49.205Z,3.78
2022-09-02T20:16:20.391Z,3.58
2022-09-02T20:18:49.417Z,3.58
2022-09-02T20:21:22.149Z,3.50
2022-09-02T20:23:53.876Z,3.58
2022-09-02T20:26:35.131Z,3.30
2022-09-02T20:29:16.461Z,3.28
2022-09-02T20:31:59.000Z,3.60
2022-09-02T20:34:40.231Z,2.97
2022-09-02T20:37:20.344Z,3.92
2022-09-02T20:40:06.745Z,3.47
2022-09-02T20:42:53.400Z,2.85
2022-09-02T20:45:27.000Z,2.80
2022-09-02T20:48:07.431Z,2.80
2022-09-02T20:50:50.063Z,2.70
2022-09-02T20:53:28.734Z,2.63
2022-09-02T20:56:04.829Z,2.20
2022-09-02T20:58:41.304Z,2.22
2022-09-02T21:01:10.897Z,2.28
2022-09-02T21:03:49.776Z,2.55
2022-09-02T21:06:22.162Z,2.20
2022-09-02T21:09:00.612Z,2.40
2022-09-02T21:11:43.135Z,2.67
2022-09-02T21:14:16.394Z,2.80
2022-09-02T21:16:50.246Z,2.40
2022-09-02T21:19:30.434Z,2.60
2022-09-02T21:22:03.100Z,2.58
2022-09-02T21:24:37.072Z,2.50
2022-09-02T21:27:13.184Z,3.15
2022-09-02T21:29:46.588Z,2.17
2022-09-02T21:32:20.698Z,2.70
2022-09-02T21:34:55.122Z,2.10
2022-09-02T21:37:24.733Z,2.72
2022-09-02T21:39:58.096Z,2.85
2022-09-02T21:42:37.317Z,2.20
2022-09-02T21:45:13.427Z,2.42
2022-09-02T21:47:52.765Z,2.35
2022-09-02T21:50:26.285Z,2.42
2022-09-02T21:53:04.755Z,2.10
2022-09-02T21:55:46.107Z,2.40
2022-09-02T21:58:34.244Z,2.15
2022-09-02T22:01:07.767Z,2.03
2022-09-02T22:03:42.179Z,2.35
2022-09-02T22:06:14.784Z,2.45
2022-09-02T22:08:50.370Z,2.25
2022-09-02T22:11:26.593Z,2.25
2022-09-02T22:13:59.404Z,1.83
2022-09-02T22:16:41.221Z,1.98
2022-09-02T22:19:10.007Z,2.55
2022-09-02T22:21:48.467Z,1.90
2022-09-02T22:24:18.083Z,2.60
2022-09-02T22:26:51.323Z,2.33
2022-09-02T22:29:27.185Z,2.35
2022-09-02T22:31:59.606Z,4.10
2022-09-02T22:34:29.759Z,2.78
2022-09-02T22:37:01.688Z,2.67
2022-09-02T22:39:36.254Z,2.17
2022-09-02T22:42:11.093Z,1.77
2022-09-02T22:45:03.503Z,2.10
2022-09-02T22:47:51.716Z,1.90
2022-09-02T22:50:44.845Z,2.05
2022-09-02T22:53:12.954Z,1.90
2022-09-02T22:55:54.317Z,1.98
2022-09-02T22:58:32.899Z,1.80
2022-09-02T23:01:13.652Z,1.60
2022-09-02T23:03:47.815Z,1.67
2022-09-02T23:06:22.482Z,1.45
2022-09-02T23:08:50.469Z,1.80
2022-09-02T23:11:28.545Z,1.63
2022-09-02T23:14:10.507Z,1.50
2022-09-02T23:17:15.616Z,1.80
2022-09-02T23:20:06.521Z,1.63
2022-09-02T23:23:09.419Z,1.70
2022-09-02T23:26:05.110Z,1.75
2022-09-02T23:28:43.444Z,1.83
2022-09-02T23:31:21.953Z,1.70
2022-09-02T23:34:01.430Z,1.60
2022-09-02T23:36:40.228Z,1.70
2022-09-02T23:39:30.914Z,1.63
2022-09-02T23:42:01.404Z,1.60
2022-09-02T23:44:30.101Z,1.50
2022-09-02T23:47:11.247Z,1.60
2022-09-02T23:49:49.079Z,1.40
2022-09-02T23:52:26.413Z,1.10
2022-09-02T23:55:02.094Z,1.30
2022-09-02T23:57:52.817Z,1.35
